x

Buoy B01 - Western Maine Shelf (44030) Wave Buoy

5:04 - Thu 17th Aug 2017 All times are EDT. -4 hours from GMT.

  • Sig Wave height 2.0ft
  • Peak Period 8s
  • Wind
    7mph, 9mph gusts
  • Sea Temp 64°f
  • Luft Temp 62°f
  • Sea Pressure 1016.3mb
  • Buoy B01 - Western Maine Shelf
  • Buoy B01 - Western Maine Shelf

More Historic Weather Station data

Upgrade to MSW Pro to gain access to the past 30 days of data for over 8000 Wavebouys and Weather Stations around the globe.

Join

Comparision Forecast

View Surf forecast
   
Do 08/17 5:04 2ft 8s 7 9 mph 1016.3mb 64f 62f
4:04 2.5ft 11s 9 11 mph 1016.5mb 64f 62f
3:04 3ft 16s 9 9 mph 1016.3mb 64f 63f
2:04  -   -  7 9 mph 1016.6mb 64f 63f
1:04 3ft 11s 4 7 mph 1016.3mb 64f 65f
12:04 2.5ft 11s 4 7 mph 1016.4mb 64f 65f
Mi 08/16 11:04 3ft 11s 9 13 mph 1016.1mb 64f 66f
10:04 2.5ft 11s 11 13 mph 1015.6mb 64f 67f
9:04 2.5ft 11s 9 11 mph 1015mb 64f 67f
8:04 2.5ft 11s 11 11 mph 1014.1mb 65f 68f
7:04 1.6ft 6s 13 13 mph 1013.1mb 65f 70f
6:04 3ft 11s 16 18 mph 1012.7mb 65f 72f
5:04 2.5ft 6s 16 18 mph 1012.2mb 65f 71f
4:04 2ft 3s 13 16 mph 1012.3mb 65f 71f
3:04 1ft 4s 18 20 mph 1012.3mb 66f 73f
2:04 2ft 8s 9 9 mph 1012.7mb 67f 71f
1:04 2ft 8s 4 4 mph 1012.7mb 65f 73f
12:04 2.5ft 8s 7 9 mph 1012.9mb 65f 71f
11:04 2.5ft 8s 4 7 mph 1013mb 65f 69f
10:04 2.5ft 8s 2 2 mph 1013mb 64f 70f
9:04 2.5ft 8s 2 4 mph 1012.6mb 64f 67f
8:04 2.5ft 5s 7 9 mph 1012.3mb 64f 66f
7:04 2.5ft 8s 7 7 mph 1012mb 64f 65f
6:04 2.5ft 6s 7 7 mph 1011.4mb 64f 64f
5:04 2.5ft 8s 4 7 mph 1010.9mb 64f 64f
4:04 2.5ft 6s 9 9 mph 1010.9mb 64f 64f
3:04 2.5ft 8s 11 11 mph 1010.8mb 64f 65f
2:04 2.5ft 11s 9 11 mph 1010.4mb 64f 65f
1:04 2.5ft 5s 9 11 mph 1010.8mb 64f 65f
12:04 2.5ft 5s 11 13 mph 1010.8mb 64f 65f
Di 08/15 11:04 2.5ft 5s 13 16 mph 1010.9mb 64f 66f
10:04 2.5ft 8s 13 16 mph 1011.3mb 64f 66f
9:04 2.5ft 6s 16 20 mph 1010.8mb 64f 67f
8:04 2.5ft 6s 11 13 mph 1010.6mb 64f 67f
7:04 2.5ft 6s 13 16 mph 1010.9mb 64f 67f
6:04 3ft 8s 9 11 mph 1011.1mb 64f 66f
5:04 3ft 6s 11 13 mph 1010.9mb 64f 66f
4:04 2.5ft 6s 9 11 mph 1011.6mb 64f 66f
3:04 2.5ft 6s 4 7 mph 1012.3mb 64f 66f
2:04 2.5ft 6s 9 9 mph 1012.6mb 64f 66f
1:04 2ft 8s 9 11 mph 1012.5mb 65f 66f
12:04 1.6ft 6s 7 9 mph 1013mb 65f 66f
11:04 2ft 8s 9 11 mph 1013.5mb 65f 65f
10:04 1.6ft 8s 7 7 mph 1013.7mb 65f 65f
9:04 2ft 8s 7 7 mph 1013.9mb 64f 64f
8:04 2ft 8s 4 4 mph 1013.8mb 64f 64f
7:04 2.5ft 8s 4 4 mph 1013.8mb 64f 64f
6:04 3ft 6s 2 2 mph 1013.9mb 64f 64f
5:04 2.5ft 8s 2 4 mph 1013.9mb 64f 64f
4:04 2.5ft 6s 7 9 mph 1013.6mb 64f 65f
3:04 3.5ft 6s 4 7 mph 1013.8mb 64f 65f
2:04 3ft 8s 7 7 mph 1014.2mb 64f 65f
1:04 2.5ft 6s 4 7 mph 1014.5mb 64f 65f
12:04 2.5ft 6s 7 7 mph 1014.8mb 64f 65f
Mo 08/14 11:04 2.5ft 8s 7 9 mph 1015mb 64f 65f
10:04 2ft 8s 7 7 mph 1015.3mb 64f 65f
9:04 2.5ft 8s 4 4 mph 1015.3mb 64f 65f
7:04 2.5ft 8s 7 7 mph 1014.9mb 64f 67f
6:04 2.5ft 8s 9 9 mph 1015mb 65f 66f
5:04 2.5ft 8s 7 9 mph 1015.2mb 64f 67f
4:04 2.5ft 8s 9 9 mph 1015.6mb 65f 67f
3:04 3ft 8s 7 7 mph 1016.1mb 65f 67f
2:04 3ft 8s 4 4 mph 1016.6mb 65f 68f
1:04 2.5ft 8s 4 4 mph 1017.3mb 65f 68f
12:04 2.5ft 8s 2 4 mph 1017.7mb 64f 70f
11:04 2ft 8s 2 2 mph 1018mb 64f 67f
10:04 2.5ft 8s  -  2 mph 1018.1mb 64f 66f
9:04 2ft 8s 4 4 mph 1018mb 63f 64f
8:04 2.5ft 6s 2 4 mph 1018.1mb 63f 65f
7:04 2.5ft 6s 2 2 mph 1017.7mb 63f 66f
6:04 2.5ft 6s 2 2 mph 1017.1mb 63f 63f
5:04 3ft 6s 2 4 mph 1016.8mb 63f 63f
4:04 2.5ft 6s 2 4 mph 1016.6mb 63f 64f
3:04 2.5ft 6s 4 7 mph 1016.3mb 63f 64f
2:04 2ft 6s 7 7 mph 1015.8mb 64f 65f
1:04 2.5ft 6s 4 4 mph 1015.8mb 64f 66f
12:04 2ft 8s 4 4 mph 1015.6mb 64f 67f
So 08/13 11:04 2.5ft 8s 4 4 mph 1015.5mb 64f 67f
10:04 2ft 8s 4 4 mph 1015.1mb 64f 67f
9:04 2.5ft 6s 7 7 mph 1014.7mb 64f 68f
8:04 2ft 8s 7 9 mph 1013.8mb 64f 70f
7:04 2.5ft 8s 11 13 mph 1012.8mb 64f 72f
6:04 1ft 2s 13 13 mph 1011.8mb 64f 72f
5:04 3ft 8s 13 16 mph 1011.3mb 64f 72f
4:04 3ft 6s 9 11 mph 1011mb 64f 72f
3:04 3.5ft 8s 11 11 mph 1010.7mb 64f 71f
2:04 4ft 8s 9 9 mph 1010.4mb 64f 71f
1:04 3.5ft 8s 7 9 mph 1010.4mb 63f 69f
12:04 3ft 8s 9 11 mph 1010.5mb 63f 69f